Ana Sayfa
METAR-TAF:

METAR-TAF

Havaalanları :

Oswego County Airport

Fulton, New York, Amerika Birleşik Devletleri

Enlem: 43-21-03N, Boylam: 076-23-17W, yükseklik: 145 m

Güncel hava durumu gözlemi

Rapor saat 23:54 UTC de 1 saat ve 1 dakika önce yapıldı.
Rüzgar güneybatıdan 9 kt
Sıcaklık 2°C
Nem 80%
Basınç 1006 hPa
Görüş mesafesi: 16.1 km
1700 ft yükseklikte çok bulutlu

METAR: KFZY 262354Z AUTO 23009KT 10SM OVC017 02/M01 A2970 RMK AO2 SLP061 60001 T00221011 10033 20022 51004

Saat: 19:55 (00:55 UTC)


TAF: eksik

4.000'den fazla havaalanı için hava durumu gözlemleri ve tahminleri (METAR ve TAF raporları).

Kullanılabilir istasyonlar harita üzerinde sarı ve kırmızı noktalarla gösterilir.

İstasyonun adını görmek için fareyi noktanın üzerinde gezdirin.

Sonrasında hava gözlem ve tahminlerini görmek için tıklayın.

Haritayı değiştirmek için: yaklaştırmak için siyah artı işaretli yeşil düğmeye ve uzaklaştırmak için de eksi işaretli düğmeye hızla tıklayın; bitişik haritalar için yeşil okları kullanın.


METAR-TAF: